createdAt,value
2017-11-04T08:26:07.736Z,27.70
2017-11-04T08:28:35.243Z,25.33
2017-11-04T08:31:02.830Z,26.50
2017-11-04T08:33:30.366Z,28.00
2017-11-04T08:35:57.938Z,26.40
2017-11-04T08:38:25.482Z,26.25
2017-11-04T08:40:52.998Z,27.23
2017-11-04T08:43:20.818Z,26.87
2017-11-04T08:45:48.385Z,27.63
2017-11-04T08:48:16.764Z,27.35
2017-11-04T09:05:45.890Z,28.23
2017-11-04T09:19:34.727Z,29.63
2017-11-04T09:22:02.255Z,28.40
2017-11-04T09:39:00.253Z,32.07
2017-11-04T09:41:27.834Z,53.97
2017-11-04T09:43:55.403Z,58.17
2017-11-04T09:46:23.755Z,60.65
2017-11-04T09:48:52.097Z,60.10
2017-11-04T10:04:00.500Z,69.67
2017-11-04T10:06:28.036Z,69.53
2017-11-04T10:08:55.559Z,73.23
2017-11-04T10:11:23.102Z,73.80
2017-11-04T10:13:50.639Z,67.77
2017-11-04T10:16:18.175Z,66.27
2017-11-04T10:18:45.766Z,70.93
2017-11-04T10:21:13.308Z,68.67
2017-11-04T10:23:42.001Z,72.47
2017-11-04T10:26:09.554Z,61.88
2017-11-04T10:28:37.332Z,72.80
2017-11-04T10:31:04.911Z,71.55
2017-11-04T10:33:32.519Z,71.35
2017-11-04T10:36:00.066Z,66.27
2017-11-04T10:38:28.381Z,65.77
2017-11-04T10:40:56.539Z,71.90
2017-11-04T10:43:24.051Z,66.75
2017-11-04T10:45:51.627Z,70.63
2017-11-04T10:48:19.944Z,68.40
2017-11-04T10:50:47.462Z,64.90
2017-11-04T10:53:15.815Z,65.60
2017-11-04T10:55:43.353Z,71.43
2017-11-04T10:58:10.878Z,69.90
2017-11-04T11:00:39.218Z,66.20
2017-11-04T11:03:06.734Z,69.60
2017-11-04T11:05:34.294Z,68.47
2017-11-04T11:08:01.814Z,66.40
2017-11-04T11:10:29.367Z,69.30
2017-11-04T11:12:56.919Z,69.43
2017-11-04T11:15:24.494Z,69.53
2017-11-04T11:17:52.023Z,69.47
2017-11-04T11:20:19.574Z,66.10
2017-11-04T11:22:47.181Z,66.67
2017-11-04T11:25:15.474Z,65.10
2017-11-04T11:27:42.991Z,63.63
2017-11-04T11:30:10.558Z,59.60
2017-11-04T11:32:38.185Z,69.50
2017-11-04T11:35:05.775Z,67.75
2017-11-04T11:37:33.323Z,64.50
2017-11-04T11:40:00.830Z,65.97
2017-11-04T11:42:29.142Z,64.40
2017-11-04T11:44:56.728Z,64.30
2017-11-04T11:47:24.256Z,66.05
2017-11-04T11:49:51.814Z,67.87
2017-11-04T11:52:19.412Z,67.82
2017-11-04T12:30:48.951Z,45.70
2017-11-04T12:53:23.424Z,43.40
2017-11-04T13:42:16.081Z,29.17
2017-11-04T13:56:14.274Z,31.80
2017-11-04T13:58:42.553Z,28.17
2017-11-04T14:26:42.814Z,20.20
2017-11-04T14:29:10.326Z,20.70
2017-11-04T14:31:37.864Z,20.50
2017-11-04T14:34:06.208Z,21.90
2017-11-04T14:36:33.847Z,23.80
2017-11-04T14:39:01.435Z,19.83
2017-11-04T14:41:28.963Z,22.53
2017-11-04T14:43:56.559Z,26.80
2017-11-04T14:46:24.116Z,23.83
2017-11-04T14:48:51.654Z,24.17
2017-11-04T14:51:19.226Z,23.30
2017-11-04T14:53:46.760Z,23.57
2017-11-04T14:56:14.294Z,22.83
2017-11-04T14:58:42.664Z,23.20
2017-11-04T15:01:10.983Z,23.20
2017-11-04T15:03:38.536Z,22.03
2017-11-04T15:06:06.551Z,22.23
2017-11-04T16:39:44.007Z,16.73
2017-11-04T16:50:50.484Z,16.53
2017-11-04T17:06:05.502Z,15.90
2017-11-04T17:08:33.047Z,16.90
2017-11-04T17:11:00.563Z,16.37
2017-11-04T17:26:14.486Z,15.50
2017-11-04T17:41:46.591Z,16.23
2017-11-04T18:09:24.740Z,15.20
2017-11-04T18:24:18.762Z,14.47
2017-11-04T18:39:42.924Z,13.60
2017-11-04T18:57:34.468Z,15.53
2017-11-04T19:28:21.431Z,15.43
2017-11-04T19:45:02.745Z,17.30
2017-11-04T19:47:30.283Z,17.37
2017-11-04T20:12:12.390Z,15.40
2017-11-04T20:14:40.032Z,17.87
2017-11-04T20:44:30.099Z,14.83
2017-11-04T20:46:57.647Z,15.73
2017-11-04T20:49:26.754Z,15.50
2017-11-04T20:51:54.344Z,13.10
2017-11-04T20:54:22.646Z,13.87
2017-11-04T20:56:51.753Z,14.80
2017-11-04T20:59:19.648Z,13.70
2017-11-04T21:17:15.471Z,14.47
2017-11-04T21:20:46.896Z,13.67
2017-11-04T21:32:46.208Z,13.63
2017-11-04T21:49:41.963Z,12.83
2017-11-04T22:03:54.512Z,13.23
2017-11-04T22:06:24.427Z,13.43
2017-11-04T22:08:52.772Z,13.83
2017-11-04T22:11:23.807Z,13.37
2017-11-04T22:13:52.014Z,12.80
2017-11-04T22:18:52.817Z,12.43
2017-11-04T22:21:20.319Z,12.40
2017-11-04T22:23:48.097Z,13.23
2017-11-04T22:49:00.787Z,13.57
2017-11-04T22:51:31.213Z,12.40
2017-11-04T22:54:00.180Z,12.73
2017-11-04T22:56:27.882Z,13.07
2017-11-04T22:58:55.400Z,12.73
2017-11-04T23:01:23.062Z,12.43
2017-11-04T23:03:50.708Z,12.10
2017-11-04T23:06:19.010Z,12.03
2017-11-04T23:08:46.555Z,14.00
2017-11-04T23:11:14.138Z,12.17
2017-11-04T23:13:44.898Z,12.00
2017-11-04T23:16:12.518Z,11.60
2017-11-04T23:18:40.484Z,12.95
2017-11-04T23:21:08.048Z,11.80
2017-11-04T23:23:35.620Z,14.63
2017-11-04T23:26:03.194Z,11.93
2017-11-04T23:28:30.718Z,11.83
2017-11-04T23:30:58.256Z,11.60
2017-11-04T23:33:26.613Z,11.33
2017-11-04T23:35:55.160Z,12.10
2017-11-04T23:38:22.849Z,11.30
2017-11-04T23:40:50.852Z,11.50
2017-11-04T23:43:19.212Z,11.40
2017-11-04T23:45:47.607Z,11.83
2017-11-04T23:48:15.951Z,10.60
2017-11-04T23:50:43.502Z,11.50
2017-11-04T23:53:11.116Z,11.33
2017-11-04T23:55:40.235Z,11.18
2017-11-04T23:58:07.935Z,12.03
